createdAt,value
2022-08-27T00:02:25.477Z,6.55
2022-08-27T00:04:52.217Z,5.68
2022-08-27T00:07:19.004Z,6.00
2022-08-27T00:09:45.743Z,6.07
2022-08-27T00:12:12.564Z,5.68
2022-08-27T00:14:39.370Z,5.38
2022-08-27T00:17:06.661Z,6.10
2022-08-27T00:19:33.603Z,6.05
2022-08-27T00:22:00.352Z,4.85
2022-08-27T00:24:27.197Z,5.70
2022-08-27T00:26:54.020Z,5.97
2022-08-27T00:29:20.970Z,5.63
2022-08-27T00:31:49.504Z,6.57
2022-08-27T00:34:20.741Z,6.15
2022-08-27T00:36:47.516Z,5.20
2022-08-27T00:39:14.290Z,5.07
2022-08-27T00:41:41.801Z,5.38
2022-08-27T00:44:09.404Z,5.15
2022-08-27T00:46:43.183Z,5.47
2022-08-27T00:49:19.422Z,6.38
2022-08-27T00:52:00.232Z,6.15
2022-08-27T00:54:26.975Z,5.28
2022-08-27T00:56:53.771Z,5.72
2022-08-27T00:59:23.062Z,5.82
2022-08-27T01:02:08.299Z,5.28
2022-08-27T01:04:35.263Z,6.13
2022-08-27T01:07:02.049Z,6.20
2022-08-27T01:09:28.877Z,5.75
2022-08-27T01:11:56.095Z,5.93
2022-08-27T01:14:22.862Z,5.57
2022-08-27T01:16:54.697Z,6.25
2022-08-27T01:19:27.971Z,5.50
2022-08-27T01:22:19.166Z,5.10
2022-08-27T01:24:50.459Z,5.10
2022-08-27T01:27:19.228Z,4.90
2022-08-27T01:29:46.050Z,4.97
2022-08-27T01:32:16.108Z,5.35
2022-08-27T01:34:42.933Z,5.80
2022-08-27T01:37:10.559Z,5.38
2022-08-27T01:39:39.823Z,6.10
2022-08-27T01:42:15.476Z,5.55
2022-08-27T01:44:50.575Z,5.32
2022-08-27T01:47:18.584Z,5.63
2022-08-27T01:49:45.521Z,5.82
2022-08-27T01:52:12.624Z,5.85
2022-08-27T01:54:39.367Z,5.85
2022-08-27T01:57:06.150Z,5.53
2022-08-27T01:59:39.483Z,4.80
2022-08-27T02:02:07.655Z,6.00
2022-08-27T02:04:34.541Z,6.32
2022-08-27T02:07:01.355Z,5.60
2022-08-27T02:09:28.151Z,5.35
2022-08-27T02:11:54.906Z,5.45
2022-08-27T02:14:22.810Z,6.28
2022-08-27T02:16:52.235Z,5.63
2022-08-27T02:19:19.966Z,6.43
2022-08-27T02:21:47.286Z,5.70
2022-08-27T02:24:14.023Z,6.53
2022-08-27T02:26:41.576Z,6.18
2022-08-27T02:29:08.698Z,5.32
2022-08-27T02:31:35.569Z,5.57
2022-08-27T02:34:03.051Z,5.72
2022-08-27T02:36:30.145Z,5.40
2022-08-27T02:38:56.970Z,5.10
2022-08-27T02:41:23.728Z,5.72
2022-08-27T02:43:50.491Z,6.03
2022-08-27T02:46:17.289Z,5.53
2022-08-27T02:48:44.906Z,5.32
2022-08-27T02:51:11.661Z,5.57
2022-08-27T02:53:38.487Z,5.60
2022-08-27T02:56:06.441Z,5.60
2022-08-27T02:58:33.716Z,6.05
2022-08-27T03:01:01.794Z,5.70
2022-08-27T03:03:29.656Z,5.63
2022-08-27T03:05:58.007Z,5.65
2022-08-27T03:08:26.570Z,5.25
2022-08-27T03:10:56.710Z,5.95
2022-08-27T03:13:24.139Z,5.88
2022-08-27T03:15:50.909Z,5.57
2022-08-27T03:18:18.396Z,6.40
2022-08-27T03:20:55.698Z,6.05
2022-08-27T03:23:25.133Z,6.15
2022-08-27T03:25:56.752Z,5.90
2022-08-27T03:28:25.850Z,6.00
2022-08-27T03:30:54.259Z,5.82
2022-08-27T03:33:21.453Z,5.10
2022-08-27T03:35:51.741Z,5.03
2022-08-27T03:38:19.078Z,5.70
2022-08-27T03:40:45.876Z,5.90
2022-08-27T03:43:13.421Z,6.85
2022-08-27T03:46:00.522Z,6.50
2022-08-27T03:48:29.836Z,5.68
2022-08-27T03:50:56.584Z,6.30
2022-08-27T03:53:23.337Z,7.28
2022-08-27T03:55:50.248Z,6.40
2022-08-27T03:58:17.970Z,7.90
2022-08-27T04:00:44.822Z,6.25
2022-08-27T04:03:13.338Z,6.43
2022-08-27T04:05:40.282Z,6.40
2022-08-27T04:08:07.077Z,6.45
2022-08-27T04:10:34.989Z,6.13
2022-08-27T04:13:01.984Z,5.60
2022-08-27T04:15:28.993Z,6.45
2022-08-27T04:17:55.825Z,6.45
2022-08-27T04:20:35.037Z,5.53
2022-08-27T04:23:02.436Z,5.97
2022-08-27T04:25:29.487Z,6.28
2022-08-27T04:27:56.301Z,5.80
2022-08-27T04:30:23.045Z,5.90
2022-08-27T04:32:50.646Z,6.05
2022-08-27T04:35:17.574Z,5.53
2022-08-27T04:37:44.428Z,6.20
2022-08-27T04:40:11.418Z,5.57
2022-08-27T04:42:38.518Z,6.35
2022-08-27T04:45:05.800Z,6.10
2022-08-27T04:47:33.204Z,5.78
2022-08-27T04:50:00.024Z,6.68
2022-08-27T04:52:26.944Z,6.28
2022-08-27T04:54:53.728Z,7.00
2022-08-27T04:57:21.054Z,7.00
2022-08-27T04:59:48.076Z,5.75
2022-08-27T05:02:14.932Z,5.97
2022-08-27T05:04:41.841Z,6.47
2022-08-27T05:07:09.186Z,5.95
2022-08-27T05:09:36.000Z,6.35
2022-08-27T05:12:03.181Z,6.30
2022-08-27T05:14:30.500Z,6.05
2022-08-27T05:17:00.534Z,6.93
2022-08-27T05:19:27.392Z,5.63
2022-08-27T05:21:54.205Z,6.53
2022-08-27T05:24:21.309Z,5.95
2022-08-27T05:26:48.234Z,6.78
2022-08-27T05:29:15.161Z,5.85
2022-08-27T05:31:42.153Z,6.97
2022-08-27T05:34:10.533Z,5.68
2022-08-27T05:36:48.517Z,6.07
2022-08-27T05:39:16.059Z,5.78
2022-08-27T05:41:43.183Z,5.30
2022-08-27T05:44:39.144Z,5.80
2022-08-27T05:46:57.006Z,5.30
2022-08-27T05:49:23.772Z,5.82
2022-08-27T05:51:50.528Z,5.85
2022-08-27T05:54:19.881Z,5.68
2022-08-27T05:56:52.123Z,5.03
2022-08-27T05:59:37.745Z,4.88
2022-08-27T06:02:06.037Z,4.25
2022-08-27T06:04:33.013Z,4.57
2022-08-27T06:06:59.777Z,4.43
2022-08-27T06:09:28.836Z,4.22
2022-08-27T06:11:56.474Z,4.90
2022-08-27T06:14:23.292Z,4.80
2022-08-27T06:16:50.075Z,4.55
2022-08-27T06:19:16.822Z,4.10
2022-08-27T06:21:43.649Z,4.97
2022-08-27T06:24:12.789Z,4.32
2022-08-27T06:26:42.863Z,5.00
2022-08-27T06:29:09.967Z,4.35
2022-08-27T06:31:37.416Z,4.65
2022-08-27T06:34:07.950Z,4.45
2022-08-27T06:36:37.165Z,4.57
2022-08-27T06:39:04.057Z,4.35
2022-08-27T06:41:30.836Z,4.72
2022-08-27T06:43:58.413Z,4.80
2022-08-27T06:46:26.370Z,4.60
2022-08-27T06:48:57.304Z,4.60
2022-08-27T06:51:26.408Z,4.38
2022-08-27T06:53:55.007Z,3.90
2022-08-27T06:56:22.085Z,4.30
2022-08-27T06:58:48.882Z,4.10
2022-08-27T07:01:17.751Z,4.15
2022-08-27T07:03:44.705Z,3.92
2022-08-27T07:06:12.681Z,4.15
2022-08-27T07:08:39.709Z,3.90
2022-08-27T07:11:10.079Z,4.20
2022-08-27T07:13:37.053Z,3.90
2022-08-27T07:16:07.380Z,3.60
2022-08-27T07:18:34.340Z,3.92
2022-08-27T07:21:01.159Z,4.07
2022-08-27T07:23:28.554Z,3.72
2022-08-27T07:25:55.360Z,3.65
2022-08-27T07:28:22.144Z,3.72
2022-08-27T07:30:48.953Z,3.92
2022-08-27T07:33:15.741Z,3.72
2022-08-27T07:35:42.520Z,3.80
2022-08-27T07:38:11.801Z,4.07
2022-08-27T07:40:38.718Z,3.60
2022-08-27T07:43:26.488Z,3.80
2022-08-27T07:45:56.155Z,3.75
2022-08-27T07:48:23.912Z,3.90
2022-08-27T07:50:51.992Z,4.95
2022-08-27T07:53:19.290Z,4.50
2022-08-27T07:55:46.289Z,4.45
2022-08-27T07:58:16.894Z,4.20
2022-08-27T08:00:45.625Z,4.05
2022-08-27T08:03:12.483Z,4.03
2022-08-27T08:05:45.363Z,4.53
2022-08-27T08:08:12.384Z,4.53
2022-08-27T08:10:40.615Z,4.25
2022-08-27T08:13:07.485Z,4.45
2022-08-27T08:15:34.368Z,4.57
2022-08-27T08:18:01.329Z,4.00
2022-08-27T08:20:54.262Z,4.40
2022-08-27T08:23:14.920Z,4.45
2022-08-27T08:25:41.978Z,4.45
2022-08-27T08:28:09.537Z,4.85
2022-08-27T08:30:36.470Z,4.68
2022-08-27T08:33:03.375Z,4.63
2022-08-27T08:35:35.123Z,4.30
2022-08-27T08:38:07.703Z,4.90
2022-08-27T08:40:39.608Z,4.80
2022-08-27T08:43:07.540Z,4.50
2022-08-27T08:45:34.982Z,4.82
2022-08-27T08:48:12.314Z,5.07
2022-08-27T08:50:52.148Z,4.60
2022-08-27T08:53:30.678Z,4.30
2022-08-27T08:56:02.237Z,5.10
2022-08-27T08:58:44.772Z,4.03
2022-08-27T09:01:12.370Z,4.65
2022-08-27T09:03:42.094Z,4.75
2022-08-27T09:06:12.012Z,4.45
2022-08-27T09:08:42.044Z,4.78
2022-08-27T09:11:40.553Z,4.45
2022-08-27T09:14:29.407Z,4.38
2022-08-27T09:17:00.781Z,4.68
2022-08-27T09:19:28.788Z,4.60
2022-08-27T09:22:04.086Z,4.47
2022-08-27T09:24:43.517Z,4.28
2022-08-27T09:27:12.636Z,5.03
2022-08-27T09:29:46.145Z,4.90
2022-08-27T09:32:12.910Z,4.28
2022-08-27T09:34:40.914Z,4.47
2022-08-27T09:37:15.314Z,4.72
2022-08-27T09:39:42.161Z,4.53
2022-08-27T09:42:09.091Z,4.70
2022-08-27T09:44:49.140Z,5.00
2022-08-27T09:47:18.331Z,5.10
2022-08-27T09:49:45.196Z,4.72
2022-08-27T09:52:19.396Z,4.82
2022-08-27T09:54:47.240Z,5.22
2022-08-27T09:57:15.510Z,5.05
2022-08-27T09:59:51.042Z,4.93
2022-08-27T10:02:20.210Z,4.88
2022-08-27T10:04:54.647Z,5.13
2022-08-27T10:07:26.466Z,5.07
2022-08-27T10:09:57.455Z,4.47
2022-08-27T10:12:55.133Z,5.57
2022-08-27T10:15:23.125Z,5.28
2022-08-27T10:18:19.944Z,4.97
2022-08-27T10:20:52.669Z,5.43
2022-08-27T10:23:41.945Z,5.10
2022-08-27T10:26:33.754Z,5.78
2022-08-27T10:29:21.203Z,5.23
2022-08-27T10:32:07.114Z,5.50
2022-08-27T10:34:43.463Z,5.70
2022-08-27T10:37:20.920Z,5.45
2022-08-27T10:40:19.772Z,5.43
2022-08-27T10:43:05.460Z,5.72
2022-08-27T10:45:42.567Z,5.28
2022-08-27T10:48:42.120Z,5.50
2022-08-27T10:51:18.246Z,5.85
2022-08-27T10:53:50.309Z,6.00
2022-08-27T10:56:38.888Z,5.05
2022-08-27T10:59:27.424Z,5.50
2022-08-27T11:02:13.024Z,5.32
2022-08-27T11:04:43.450Z,6.05
2022-08-27T11:07:23.603Z,5.30
2022-08-27T11:10:06.292Z,5.43
2022-08-27T11:15:04.544Z,5.22
2022-08-27T11:17:35.431Z,5.18
2022-08-27T11:20:08.544Z,5.10
2022-08-27T11:23:17.510Z,5.18
2022-08-27T11:25:51.870Z,5.22
2022-08-27T11:28:20.572Z,5.22
2022-08-27T11:31:05.052Z,5.13
2022-08-27T11:33:47.046Z,5.22
2022-08-27T11:36:16.968Z,5.28
2022-08-27T11:39:11.947Z,5.22
2022-08-27T11:41:47.804Z,5.22
2022-08-27T11:44:15.010Z,5.03
2022-08-27T11:46:48.262Z,4.97
2022-08-27T11:49:29.901Z,4.80
2022-08-27T11:52:04.756Z,4.47
2022-08-27T11:54:52.965Z,4.57
2022-08-27T11:57:31.578Z,4.63
2022-08-27T11:59:58.835Z,5.18
2022-08-27T12:02:27.803Z,4.80
2022-08-27T12:04:58.360Z,4.40
2022-08-27T12:07:30.711Z,4.80
2022-08-27T12:10:08.747Z,4.45
2022-08-27T12:12:53.068Z,4.25
2022-08-27T12:15:44.900Z,4.35
2022-08-27T12:18:37.353Z,4.47
2022-08-27T12:21:15.732Z,4.30
2022-08-27T12:24:01.284Z,4.15
2022-08-27T12:26:42.796Z,4.60
2022-08-27T12:29:48.749Z,4.57
2022-08-27T12:32:21.667Z,4.55
2022-08-27T12:35:00.898Z,4.20
2022-08-27T12:37:30.752Z,4.75
2022-08-27T12:39:58.776Z,4.78
2022-08-27T12:42:25.563Z,4.50
2022-08-27T12:44:56.584Z,5.65
2022-08-27T12:47:23.816Z,4.65
2022-08-27T12:49:58.925Z,5.38
2022-08-27T12:52:31.438Z,4.55
2022-08-27T12:57:53.342Z,4.30
2022-08-27T13:00:22.071Z,4.47
2022-08-27T13:03:19.532Z,6.18
2022-08-27T13:05:49.610Z,4.93
2022-08-27T13:08:36.013Z,4.70
2022-08-27T13:11:21.857Z,4.03
2022-08-27T13:13:49.328Z,4.82
2022-08-27T13:16:18.214Z,4.78
2022-08-27T13:18:49.259Z,4.80
2022-08-27T13:21:23.024Z,5.18
2022-08-27T13:23:58.392Z,5.10
2022-08-27T13:26:26.996Z,5.80
2022-08-27T13:28:54.248Z,4.80
2022-08-27T13:31:21.994Z,4.85
2022-08-27T13:33:48.873Z,4.80
2022-08-27T13:36:26.985Z,4.80
2022-08-27T13:38:56.490Z,4.88
2022-08-27T13:41:33.410Z,4.68
2022-08-27T13:44:11.499Z,4.75
2022-08-27T13:46:49.350Z,5.65
2022-08-27T13:49:18.855Z,4.82
2022-08-27T13:51:45.726Z,5.53
2022-08-27T13:54:18.460Z,5.00
2022-08-27T13:56:49.029Z,5.78
2022-08-27T13:59:19.337Z,5.20
2022-08-27T14:02:01.010Z,5.00
2022-08-27T14:04:44.571Z,5.35
2022-08-27T14:07:17.476Z,5.10
2022-08-27T14:09:54.677Z,5.55
2022-08-27T14:12:41.231Z,5.03
2022-08-27T14:15:28.487Z,4.70
2022-08-27T14:17:56.667Z,5.25
2022-08-27T14:20:23.588Z,5.25
2022-08-27T14:22:50.574Z,5.72
2022-08-27T14:25:17.814Z,5.90
2022-08-27T14:27:53.089Z,4.57
2022-08-27T14:30:29.535Z,4.80
2022-08-27T14:33:00.420Z,5.22
2022-08-27T14:35:31.126Z,5.43
2022-08-27T14:37:58.371Z,5.38
2022-08-27T14:40:25.219Z,4.82
2022-08-27T14:42:52.525Z,5.53
2022-08-27T14:45:19.526Z,5.55
2022-08-27T14:47:46.265Z,5.97
2022-08-27T14:50:13.552Z,6.53
2022-08-27T14:52:40.834Z,6.13
2022-08-27T14:55:10.845Z,5.75
2022-08-27T14:57:37.977Z,5.80
2022-08-27T15:00:05.789Z,5.80
2022-08-27T15:02:32.577Z,5.82
2022-08-27T15:05:00.117Z,5.75
2022-08-27T15:07:26.980Z,6.25
2022-08-27T15:09:56.276Z,5.47
2022-08-27T15:12:25.801Z,5.53
2022-08-27T15:14:53.404Z,5.82
2022-08-27T15:17:35.250Z,5.50
2022-08-27T15:20:04.463Z,6.43
2022-08-27T15:22:34.009Z,5.70
2022-08-27T15:25:00.923Z,5.90
2022-08-27T15:27:38.260Z,5.50
2022-08-27T15:30:10.059Z,5.90
2022-08-27T15:32:40.004Z,6.18
2022-08-27T15:35:09.748Z,6.28
2022-08-27T15:37:36.518Z,5.90
2022-08-27T15:40:04.002Z,5.72
2022-08-27T15:42:30.825Z,6.18
2022-08-27T15:44:57.663Z,6.40
2022-08-27T15:47:24.723Z,6.07
2022-08-27T15:49:51.485Z,6.65
2022-08-27T15:52:19.973Z,6.00
2022-08-27T15:54:48.941Z,5.95
2022-08-27T15:57:16.306Z,5.90
2022-08-27T15:59:43.115Z,6.13
2022-08-27T16:02:18.966Z,5.70
2022-08-27T16:04:47.696Z,6.47
2022-08-27T16:07:16.532Z,6.50
2022-08-27T16:09:48.091Z,6.13
2022-08-27T16:12:22.444Z,6.40
2022-08-27T16:14:54.984Z,7.00
2022-08-27T16:17:22.066Z,6.68
2022-08-27T16:19:49.411Z,6.57
2022-08-27T16:22:16.350Z,5.80
2022-08-27T16:24:43.283Z,6.38
2022-08-27T16:27:10.200Z,5.97
2022-08-27T16:29:37.230Z,6.07
2022-08-27T16:32:04.373Z,5.72
2022-08-27T16:34:31.213Z,6.07
2022-08-27T16:36:57.952Z,6.50
2022-08-27T16:39:26.478Z,5.95
2022-08-27T16:41:58.765Z,6.75
2022-08-27T16:44:26.285Z,7.40
2022-08-27T16:46:53.225Z,6.75
2022-08-27T16:49:38.402Z,7.43
2022-08-27T16:52:06.818Z,6.78
2022-08-27T16:54:34.821Z,7.32
2022-08-27T16:57:01.755Z,6.70
2022-08-27T16:59:28.544Z,6.78
2022-08-27T17:01:55.433Z,6.78
2022-08-27T17:04:29.629Z,6.38
2022-08-27T17:06:58.430Z,7.00
2022-08-27T17:09:25.927Z,5.93
2022-08-27T17:11:55.167Z,6.32
2022-08-27T17:14:21.908Z,6.10
2022-08-27T17:16:49.682Z,6.93
2022-08-27T17:19:18.690Z,6.18
2022-08-27T17:21:45.694Z,5.75
2022-08-27T17:24:12.924Z,6.20
2022-08-27T17:26:39.901Z,6.00
2022-08-27T17:29:06.717Z,5.75
2022-08-27T17:31:36.676Z,5.70
2022-08-27T17:34:03.967Z,5.97
2022-08-27T17:36:30.955Z,6.07
2022-08-27T17:38:57.989Z,5.80
2022-08-27T17:41:33.585Z,6.50
2022-08-27T17:44:02.385Z,5.97
2022-08-27T17:46:29.306Z,5.57
2022-08-27T17:48:56.064Z,5.88
2022-08-27T17:51:23.000Z,5.72
2022-08-27T17:53:51.272Z,6.00
2022-08-27T17:56:19.198Z,5.10
2022-08-27T17:58:46.829Z,5.90
2022-08-27T18:01:21.065Z,6.10
2022-08-27T18:03:48.159Z,6.07
2022-08-27T18:06:15.245Z,6.55
2022-08-27T18:08:41.997Z,5.93
2022-08-27T18:11:09.636Z,6.45
2022-08-27T18:13:37.243Z,6.32
2022-08-27T18:16:04.983Z,5.60
2022-08-27T18:18:32.240Z,5.97
2022-08-27T18:20:58.964Z,5.55
2022-08-27T18:23:25.724Z,5.82
2022-08-27T18:25:52.481Z,6.18
2022-08-27T18:28:19.687Z,5.60
2022-08-27T18:30:46.730Z,6.10
2022-08-27T18:33:13.828Z,6.38
2022-08-27T18:35:41.103Z,6.50
2022-08-27T18:38:07.918Z,6.05
2022-08-27T18:40:40.328Z,6.78
2022-08-27T18:43:07.159Z,6.50
2022-08-27T18:45:36.068Z,7.22
2022-08-27T18:48:14.521Z,6.75
2022-08-27T18:50:46.670Z,6.50
2022-08-27T18:53:15.711Z,7.07
2022-08-27T18:55:42.627Z,6.47
2022-08-27T18:58:09.567Z,6.47
2022-08-27T19:00:37.971Z,6.25
2022-08-27T19:03:04.712Z,7.00
2022-08-27T19:05:31.671Z,6.53
2022-08-27T19:07:58.693Z,6.60
2022-08-27T19:10:25.580Z,7.40
2022-08-27T19:12:52.506Z,5.97
2022-08-27T19:15:19.492Z,7.10
2022-08-27T19:17:49.385Z,6.13
2022-08-27T19:20:18.561Z,6.85
2022-08-27T19:22:45.965Z,7.05
2022-08-27T19:25:12.951Z,6.50
2022-08-27T19:27:39.742Z,6.38
2022-08-27T19:30:06.990Z,7.15
2022-08-27T19:32:33.825Z,6.38
2022-08-27T19:35:00.989Z,6.80
2022-08-27T19:37:29.306Z,7.72
2022-08-27T19:39:56.205Z,7.55
2022-08-27T19:42:23.017Z,7.70
2022-08-27T19:44:49.757Z,7.90
2022-08-27T19:47:16.802Z,7.82
2022-08-27T19:49:49.802Z,7.85
2022-08-27T19:52:16.644Z,7.78
2022-08-27T19:54:57.238Z,7.53
2022-08-27T19:57:30.146Z,7.78
2022-08-27T19:59:56.881Z,7.75
2022-08-27T20:02:23.709Z,8.70
2022-08-27T20:05:14.365Z,8.98
2022-08-27T20:07:37.213Z,8.23
2022-08-27T20:10:08.436Z,8.20
2022-08-27T20:12:36.365Z,8.52
2022-08-27T20:15:04.598Z,7.90
2022-08-27T20:17:31.608Z,8.35
2022-08-27T20:19:58.917Z,7.60
2022-08-27T20:22:25.769Z,7.20
2022-08-27T20:24:52.508Z,6.40
2022-08-27T20:27:19.324Z,6.22
2022-08-27T20:29:46.074Z,5.38
2022-08-27T20:32:13.706Z,5.45
2022-08-27T20:34:40.594Z,5.00
2022-08-27T20:37:07.446Z,5.28
2022-08-27T20:39:34.303Z,5.55
2022-08-27T20:42:01.024Z,4.55
2022-08-27T20:44:27.825Z,4.70
2022-08-27T20:46:57.352Z,4.53
2022-08-27T20:49:24.091Z,4.28
2022-08-27T20:51:51.175Z,5.03
2022-08-27T20:54:30.315Z,4.57
2022-08-27T20:56:58.324Z,4.32
2022-08-27T20:59:43.503Z,4.03
2022-08-27T21:02:11.577Z,4.55
2022-08-27T21:04:45.640Z,4.80
2022-08-27T21:07:15.857Z,4.10
2022-08-27T21:09:56.110Z,4.18
2022-08-27T21:12:27.763Z,4.60
2022-08-27T21:14:56.172Z,4.38
2022-08-27T21:17:24.491Z,4.05
2022-08-27T21:19:51.352Z,3.90
2022-08-27T21:22:18.643Z,3.92
2022-08-27T21:24:47.428Z,4.00
2022-08-27T21:27:35.053Z,3.80
2022-08-27T21:30:02.132Z,4.15
2022-08-27T21:32:28.929Z,3.95
2022-08-27T21:34:55.748Z,5.20
2022-08-27T21:37:22.565Z,4.20
2022-08-27T21:39:49.331Z,4.65
2022-08-27T21:42:16.627Z,4.10
2022-08-27T21:44:43.529Z,3.15
2022-08-27T21:47:10.383Z,3.20
2022-08-27T21:49:39.509Z,3.13
2022-08-27T21:52:10.109Z,3.38
2022-08-27T21:54:41.696Z,3.10
2022-08-27T21:57:14.140Z,3.20
2022-08-27T21:59:47.458Z,3.60
2022-08-27T22:05:05.044Z,3.08
2022-08-27T22:07:32.594Z,3.50
2022-08-27T22:10:01.147Z,3.17
2022-08-27T22:12:30.670Z,2.50
2022-08-27T22:14:59.464Z,3.50
2022-08-27T22:17:29.893Z,3.13
2022-08-27T22:19:56.778Z,2.60
2022-08-27T22:22:23.533Z,2.78
2022-08-27T22:24:57.197Z,2.72
2022-08-27T22:27:23.970Z,3.80
2022-08-27T22:29:50.687Z,3.30
2022-08-27T22:32:17.466Z,3.45
2022-08-27T22:34:44.316Z,2.83
2022-08-27T22:37:11.224Z,4.50
2022-08-27T22:39:37.971Z,3.50
2022-08-27T22:42:05.207Z,3.38
2022-08-27T22:44:31.977Z,3.20
2022-08-27T22:46:58.913Z,3.15
2022-08-27T22:49:25.866Z,3.50
2022-08-27T22:51:52.604Z,3.15
2022-08-27T22:54:19.375Z,3.53
2022-08-27T22:56:46.808Z,3.55
2022-08-27T22:59:13.604Z,4.05
2022-08-27T23:01:40.589Z,3.58
2022-08-27T23:04:07.455Z,3.47
2022-08-27T23:06:34.411Z,4.10
2022-08-27T23:09:01.881Z,4.22
2022-08-27T23:11:31.633Z,4.13
2022-08-27T23:13:59.195Z,4.00
2022-08-27T23:16:26.546Z,4.40
2022-08-27T23:18:53.345Z,4.22
2022-08-27T23:21:20.224Z,4.70
2022-08-27T23:23:47.143Z,4.30
2022-08-27T23:26:32.374Z,4.43
2022-08-27T23:28:59.096Z,4.50
2022-08-27T23:31:25.955Z,5.30
2022-08-27T23:33:53.496Z,4.82
2022-08-27T23:36:20.908Z,4.22
2022-08-27T23:38:47.854Z,4.65
2022-08-27T23:41:17.433Z,5.10
2022-08-27T23:43:45.537Z,4.97
2022-08-27T23:46:12.442Z,4.72
2022-08-27T23:48:39.421Z,4.80
2022-08-27T23:51:07.232Z,5.18
2022-08-27T23:53:34.060Z,5.13
2022-08-27T23:56:00.920Z,4.72
2022-08-27T23:58:27.715Z,4.97
